createdAt,value
2023-01-29T06:28:19.787Z,9.17
2023-01-29T06:33:27.025Z,11.77
2023-01-29T06:38:34.634Z,10.70
2023-01-29T06:43:41.877Z,13.17
2023-01-29T06:48:48.713Z,13.77
2023-01-29T06:53:56.552Z,11.70
2023-01-29T06:59:03.205Z,14.03
2023-01-29T07:04:10.339Z,14.03
2023-01-29T07:09:17.453Z,18.13
2023-01-29T07:14:24.366Z,15.37
2023-01-29T07:19:31.260Z,16.03
2023-01-29T07:24:38.138Z,17.17
2023-01-29T07:29:44.941Z,17.33
2023-01-29T07:34:51.700Z,14.83
2023-01-29T07:39:59.027Z,11.67
2023-01-29T07:45:07.139Z,8.30
2023-01-29T07:50:14.450Z,9.40
2023-01-29T07:55:21.292Z,7.97
2023-01-29T08:00:28.321Z,12.83
2023-01-29T08:05:36.065Z,9.00
2023-01-29T08:10:43.691Z,11.23
2023-01-29T08:15:50.858Z,11.00
2023-01-29T08:21:04.710Z,12.87
2023-01-29T08:26:11.902Z,11.90
2023-01-29T08:31:23.458Z,14.00
2023-01-29T08:36:30.437Z,12.33
2023-01-29T08:41:37.266Z,14.03
2023-01-29T08:46:43.981Z,15.97
2023-01-29T08:51:52.016Z,14.87
2023-01-29T08:56:59.240Z,17.40
2023-01-29T09:02:08.224Z,16.70
2023-01-29T09:07:19.089Z,14.60
2023-01-29T09:12:23.347Z,17.03
2023-01-29T09:17:30.081Z,18.13
2023-01-29T09:22:37.431Z,16.87
2023-01-29T09:27:44.312Z,17.67
2023-01-29T09:32:53.981Z,18.40
2023-01-29T09:37:59.465Z,17.00
2023-01-29T09:43:44.336Z,19.90
2023-01-29T09:48:55.635Z,17.85
2023-01-29T09:54:21.747Z,20.23
2023-01-29T09:59:32.185Z,23.53
2023-01-29T10:04:52.548Z,18.83
2023-01-29T10:10:33.762Z,26.77
2023-01-29T10:15:50.623Z,21.27
2023-01-29T10:21:16.857Z,21.63
2023-01-29T10:26:27.466Z,20.00
2023-01-29T10:31:39.410Z,22.33
2023-01-29T10:36:51.671Z,20.77
2023-01-29T10:42:29.838Z,20.60
2023-01-29T10:48:11.151Z,21.70
2023-01-29T10:53:40.116Z,20.30
2023-01-29T10:58:56.421Z,22.97
2023-01-29T11:04:06.234Z,22.27
2023-01-29T11:09:34.538Z,23.87
2023-01-29T11:14:52.232Z,19.47
2023-01-29T11:19:59.129Z,19.60
2023-01-29T11:25:21.480Z,20.27
2023-01-29T11:30:43.583Z,20.10
2023-01-29T11:35:52.701Z,20.03
2023-01-29T11:41:12.935Z,21.43
2023-01-29T11:46:21.247Z,20.40
2023-01-29T11:51:31.231Z,20.37
2023-01-29T11:56:46.792Z,17.67
2023-01-29T12:01:53.537Z,18.20
2023-01-29T12:07:00.874Z,17.73
2023-01-29T12:12:37.809Z,23.53
2023-01-29T12:17:49.094Z,19.30
2023-01-29T12:23:09.190Z,17.27
2023-01-29T12:28:20.820Z,16.60
2023-01-29T12:33:59.227Z,17.53
2023-01-29T12:39:05.991Z,17.87
2023-01-29T12:44:35.052Z,18.70
2023-01-29T12:49:44.035Z,19.47
2023-01-29T12:55:00.496Z,18.63
2023-01-29T13:00:12.638Z,18.60
2023-01-29T13:05:28.625Z,17.77
2023-01-29T13:10:48.743Z,19.03
2023-01-29T13:15:59.655Z,20.50
2023-01-29T13:21:08.013Z,19.27
2023-01-29T13:26:14.891Z,16.27
2023-01-29T13:31:34.453Z,15.53
2023-01-29T13:36:48.246Z,19.17
2023-01-29T13:41:56.648Z,17.77
2023-01-29T13:47:07.347Z,19.90
2023-01-29T13:52:45.446Z,18.47
2023-01-29T13:57:57.932Z,19.27
2023-01-29T14:03:12.043Z,18.43
2023-01-29T14:08:40.530Z,19.70
2023-01-29T14:13:50.361Z,18.23
2023-01-29T14:19:03.501Z,19.63
2023-01-29T14:24:23.829Z,17.75
2023-01-29T14:29:38.902Z,18.40
2023-01-29T14:34:53.103Z,18.03
2023-01-29T14:40:24.279Z,20.70
2023-01-29T14:45:41.813Z,19.57
2023-01-29T14:50:54.613Z,21.03
2023-01-29T14:56:19.270Z,24.13
2023-01-29T15:01:30.930Z,17.67
2023-01-29T15:07:04.812Z,17.93
2023-01-29T15:12:36.474Z,17.40
2023-01-29T15:17:59.560Z,18.07
2023-01-29T15:23:08.470Z,18.53
2023-01-29T15:28:15.780Z,20.00
2023-01-29T15:33:23.011Z,17.10
2023-01-29T15:38:30.020Z,18.53
2023-01-29T15:43:43.190Z,17.77
2023-01-29T15:48:51.308Z,14.90
2023-01-29T15:54:04.258Z,17.83
2023-01-29T15:59:20.623Z,17.07
2023-01-29T16:04:32.328Z,17.87
2023-01-29T16:09:39.584Z,15.47
2023-01-29T16:14:46.522Z,18.13
2023-01-29T16:20:02.122Z,21.27
2023-01-29T16:25:14.702Z,16.83
2023-01-29T16:30:22.387Z,16.67
2023-01-29T16:35:29.280Z,17.83
2023-01-29T16:40:39.429Z,19.53
2023-01-29T16:46:04.823Z,20.10
2023-01-29T16:51:27.349Z,18.60
2023-01-29T16:56:36.512Z,19.73
2023-01-29T17:01:43.718Z,15.30
2023-01-29T17:07:00.746Z,21.23
2023-01-29T17:12:14.972Z,17.67
2023-01-29T17:17:21.890Z,16.63
2023-01-29T17:22:28.783Z,14.97
2023-01-29T17:27:35.834Z,19.07
2023-01-29T17:32:44.207Z,18.40
2023-01-29T17:37:51.257Z,19.43
2023-01-29T17:42:58.051Z,19.07
2023-01-29T17:48:04.764Z,18.60
2023-01-29T17:53:11.693Z,18.13
2023-01-29T17:58:25.308Z,15.50
2023-01-29T18:08:40.854Z,17.67
2023-01-29T18:13:47.656Z,20.73
2023-01-29T18:18:55.681Z,19.20
2023-01-29T18:24:02.475Z,22.03
2023-01-29T18:29:09.358Z,20.23
2023-01-29T18:34:16.547Z,19.67
2023-01-29T18:39:23.576Z,19.07
2023-01-29T18:44:30.968Z,22.07
2023-01-29T18:49:39.424Z,20.87
2023-01-29T18:54:46.164Z,19.63
2023-01-29T18:59:55.418Z,22.07
2023-01-29T19:05:02.347Z,20.50
2023-01-29T19:10:11.903Z,20.07
2023-01-29T19:15:20.306Z,20.47
2023-01-29T19:20:27.253Z,20.23
2023-01-29T19:25:35.624Z,20.57
2023-01-29T19:30:42.460Z,21.10
2023-01-29T19:35:49.422Z,19.53
2023-01-29T19:40:56.546Z,20.80
2023-01-29T19:46:04.140Z,17.83
2023-01-29T19:51:13.633Z,18.80
2023-01-29T19:56:21.277Z,18.40
2023-01-29T20:01:29.885Z,20.53
2023-01-29T20:06:36.771Z,16.63
2023-01-29T20:11:43.922Z,19.20
2023-01-29T20:16:50.860Z,21.73
2023-01-29T20:21:57.739Z,20.53
2023-01-29T20:27:04.991Z,26.20
2023-01-29T20:32:12.328Z,21.60
2023-01-29T20:37:20.025Z,22.97
2023-01-29T20:42:27.055Z,19.77
2023-01-29T20:47:33.920Z,21.47
2023-01-29T20:52:42.323Z,20.00
2023-01-29T20:58:05.064Z,19.40
2023-01-29T21:02:58.419Z,20.63
2023-01-29T21:08:05.169Z,18.40
2023-01-29T21:13:15.502Z,21.20
2023-01-29T21:18:22.418Z,16.83
2023-01-29T21:23:29.740Z,18.43
2023-01-29T21:28:36.479Z,19.17
2023-01-29T21:33:44.121Z,19.03
2023-01-29T21:38:51.057Z,16.20
2023-01-29T21:43:57.927Z,18.10
2023-01-29T21:49:05.972Z,22.23
2023-01-29T21:54:13.403Z,17.63
2023-01-29T21:59:20.350Z,17.60
2023-01-29T22:04:27.217Z,15.63
2023-01-29T22:09:34.060Z,19.43
2023-01-29T22:14:42.319Z,16.83
2023-01-29T22:19:50.679Z,16.90
2023-01-29T22:24:59.227Z,16.60
2023-01-29T22:30:07.963Z,16.37
2023-01-29T22:35:14.910Z,17.93
2023-01-29T22:40:21.758Z,18.30
2023-01-29T22:45:28.404Z,17.97
2023-01-29T22:50:35.254Z,16.93
2023-01-29T22:55:42.313Z,17.33
2023-01-29T23:00:51.930Z,17.90
2023-01-29T23:06:25.961Z,14.03
2023-01-29T23:11:32.800Z,15.28
2023-01-29T23:16:39.711Z,16.27
2023-01-29T23:21:46.616Z,15.33
2023-01-29T23:27:10.873Z,13.97
2023-01-29T23:32:21.390Z,14.53
2023-01-29T23:37:28.456Z,13.70
2023-01-29T23:42:35.251Z,12.30
2023-01-29T23:47:42.458Z,11.47
2023-01-29T23:52:49.934Z,11.33
2023-01-29T23:57:57.723Z,8.73
